Time;durP1;ratioP1;P1;durP2;ratioP2;P2;SDS_P1;SDS_P2;PMS_P1;PMS_P2;Temp;Humidity;BMP_temperature;BMP_pressure;BME280_temperature;BME280_humidity;BME280_pressure;Samples;Min_cycle;Max_cycle;Signal;HPM_P1;HPM_P2
2021/12/31 00:01:35;;;;;;;54.25;28.80;;;-3.70;99.90;;;;;;5027822;28;20404;-86
2021/12/31 00:04:03;;;;;;;50.97;29.70;;;-3.70;99.90;;;;;;5030520;28;20381;-85
2021/12/31 00:06:31;;;;;;;44.33;26.42;;;-3.70;99.90;;;;;;5023543;28;20986;-85
2021/12/31 00:08:59;;;;;;;50.45;27.95;;;-3.60;99.90;;;;;;5021946;28;20753;-86
2021/12/31 00:11:27;;;;;;;47.15;27.40;;;-3.60;99.90;;;;;;5035737;28;20397;-85
2021/12/31 00:13:54;;;;;;;55.67;30.17;;;-3.60;99.90;;;;;;5029090;28;20500;-85
2021/12/31 00:16:22;;;;;;;45.63;25.73;;;-3.60;99.90;;;;;;5041437;28;20400;-85
2021/12/31 00:18:50;;;;;;;45.50;25.37;;;-3.60;99.90;;;;;;5018925;28;20433;-85
2021/12/31 00:21:17;;;;;;;44.30;24.65;;;-3.50;99.90;;;;;;5352792;22;20433;-85
2021/12/31 00:23:46;;;;;;;49.23;26.53;;;-3.50;99.90;;;;;;5059609;28;20503;-85
2021/12/31 00:26:13;;;;;;;46.45;25.85;;;-3.40;99.90;;;;;;5039449;28;20402;-86
2021/12/31 00:28:41;;;;;;;48.28;27.05;;;-3.40;99.90;;;;;;5061053;28;20906;-86
2021/12/31 00:31:09;;;;;;;48.17;26.58;;;-3.40;99.90;;;;;;5060893;28;20388;-85
2021/12/31 00:33:36;;;;;;;44.43;25.07;;;-3.30;99.90;;;;;;5044844;28;20394;-86
2021/12/31 00:36:04;;;;;;;44.47;24.42;;;-3.40;99.90;;;;;;5059941;28;20784;-85
2021/12/31 00:38:32;;;;;;;44.53;25.33;;;-3.20;99.90;;;;;;5059619;28;20402;-85
2021/12/31 00:40:59;;;;;;;44.25;24.00;;;-3.20;99.90;;;;;;5061342;28;20411;-84
2021/12/31 00:43:27;;;;;;;42.23;23.63;;;-3.20;99.90;;;;;;5054032;28;20406;-85
2021/12/31 00:45:55;;;;;;;44.58;25.23;;;-3.20;99.90;;;;;;5058966;28;20446;-86
2021/12/31 00:48:22;;;;;;;41.83;23.27;;;-3.20;99.90;;;;;;5037783;28;20867;-86
2021/12/31 00:50:51;;;;;;;40.85;23.33;;;-3.10;99.90;;;;;;5060401;28;20459;-86
2021/12/31 00:53:18;;;;;;;38.73;22.03;;;-3.10;99.90;;;;;;5066345;28;20405;-85
2021/12/31 00:55:46;;;;;;;43.17;24.48;;;-3.00;99.90;;;;;;5061120;28;20823;-85
2021/12/31 00:58:14;;;;;;;38.67;22.27;;;-3.00;99.90;;;;;;5062015;28;20487;-85
2021/12/31 01:00:41;;;;;;;44.92;22.98;;;-3.00;99.90;;;;;;5064011;28;20388;-85
2021/12/31 01:03:10;;;;;;;44.50;23.40;;;-3.00;99.90;;;;;;5063836;28;20406;-86
2021/12/31 01:05:38;;;;;;;49.60;24.52;;;-2.90;99.90;;;;;;5066008;28;20383;-84
2021/12/31 01:08:06;;;;;;;44.35;23.20;;;-2.80;99.90;;;;;;5048965;28;20719;-85
2021/12/31 01:10:33;;;;;;;47.40;23.48;;;-2.80;99.90;;;;;;5067056;28;20851;-86
2021/12/31 01:13:07;;;;;;;38.47;22.33;;;-2.90;99.90;;;;;;5054027;28;20427;-86
2021/12/31 01:20:34;;;;;;;41.03;23.35;;;-2.80;99.90;;;;;;5063726;28;20499;-86
2021/12/31 01:23:03;;;;;;;54.50;23.48;;;-2.80;99.90;;;;;;5044472;28;20491;-86
2021/12/31 01:25:31;;;;;;;47.70;25.27;;;-2.70;99.90;;;;;;5064493;28;20414;-86
2021/12/31 01:27:59;;;;;;;48.65;23.83;;;-2.70;99.90;;;;;;5059684;28;20384;-86
2021/12/31 01:30:27;;;;;;;55.08;25.77;;;-2.70;99.90;;;;;;5063614;28;20856;-86
2021/12/31 01:32:55;;;;;;;51.20;25.65;;;-2.70;99.90;;;;;;5055861;28;20389;-85
2021/12/31 01:35:24;;;;;;;46.53;25.23;;;-2.60;99.90;;;;;;5069148;28;20458;-86
2021/12/31 01:37:52;;;;;;;44.70;25.65;;;-2.70;99.90;;;;;;5064716;28;20488;-86
2021/12/31 01:40:20;;;;;;;44.63;24.70;;;-2.70;99.90;;;;;;5064854;28;20432;-87
2021/12/31 01:42:47;;;;;;;44.75;24.55;;;-2.70;99.90;;;;;;5063328;28;20442;-87
2021/12/31 01:45:19;;;;;;;63.25;24.00;;;-2.60;99.90;;;;;;5063252;28;20409;-85
2021/12/31 01:50:23;;;;;;;50.22;24.88;;;-2.50;99.90;;;;;;5056170;28;20927;-86
2021/12/31 01:52:50;;;;;;;66.68;27.65;;;-2.50;99.90;;;;;;5064530;28;20383;-86
2021/12/31 01:55:21;;;;;;;46.97;24.13;;;-2.50;99.90;;;;;;5055643;28;20767;-87
2021/12/31 01:57:49;;;;;;;49.70;26.20;;;-2.50;99.90;;;;;;5069612;28;20405;-85
2021/12/31 02:00:17;;;;;;;43.63;25.27;;;-2.50;99.90;;;;;;5047860;28;20399;-86
2021/12/31 02:02:46;;;;;;;44.45;23.35;;;-2.40;99.90;;;;;;5062957;28;20451;-86
2021/12/31 02:05:15;;;;;;;46.10;22.90;;;-2.40;99.90;;;;;;5051654;28;20452;-85
2021/12/31 02:07:43;;;;;;;44.28;22.88;;;-2.40;99.90;;;;;;5065015;28;20384;-86
2021/12/31 02:10:11;;;;;;;88.07;27.30;;;-2.40;99.90;;;;;;5061082;28;20966;-86
2021/12/31 02:12:46;;;;;;;58.45;22.58;;;-2.30;99.90;;;;;;5066560;28;20403;-85
2021/12/31 02:15:16;;;;;;;63.38;23.35;;;-2.30;99.90;;;;;;5057066;28;20435;-86
2021/12/31 02:17:44;;;;;;;44.30;23.10;;;-2.30;99.90;;;;;;5043226;28;20580;-86
2021/12/31 02:20:13;;;;;;;64.55;23.27;;;-2.30;99.90;;;;;;5061507;28;20473;-87
2021/12/31 02:22:52;;;;;;;54.63;24.48;;;-2.30;99.90;;;;;;5059702;28;20578;-86
2021/12/31 02:25:22;;;;;;;51.63;23.10;;;-2.30;99.90;;;;;;5045428;28;20477;-84
2021/12/31 02:27:51;;;;;;;61.23;21.37;;;-2.30;99.90;;;;;;5045226;28;20497;-84
2021/12/31 02:30:19;;;;;;;54.63;23.33;;;-2.20;99.90;;;;;;5061322;28;20408;-86
2021/12/31 02:32:47;;;;;;;145.80;26.52;;;-2.20;99.90;;;;;;5062092;28;20749;-85
2021/12/31 02:35:16;;;;;;;78.72;23.38;;;-2.10;99.90;;;;;;5059214;28;20451;-86
2021/12/31 02:37:44;;;;;;;79.43;23.10;;;-2.10;99.90;;;;;;5063849;28;20405;-85
2021/12/31 02:40:14;;;;;;;52.90;21.75;;;-2.10;99.90;;;;;;5063962;28;20816;-87
2021/12/31 02:42:42;;;;;;;54.75;22.20;;;-2.10;99.90;;;;;;5063310;28;20405;-86
2021/12/31 02:45:11;;;;;;;134.90;24.45;;;-2.10;99.90;;;;;;5068700;28;20407;-87
2021/12/31 02:47:45;;;;;;;71.77;23.27;;;-2.00;99.90;;;;;;5044279;28;20923;-86
2021/12/31 02:50:16;;;;;;;77.60;23.17;;;-2.00;99.90;;;;;;5060620;28;20387;-85
2021/12/31 02:52:45;;;;;;;70.38;21.25;;;-2.10;99.90;;;;;;5071552;28;20792;-88
2021/12/31 02:55:14;;;;;;;56.78;23.02;;;-2.00;99.90;;;;;;5047476;28;20401;-85
2021/12/31 02:57:43;;;;;;;65.65;21.23;;;-2.00;99.90;;;;;;5054575;28;20402;-87
2021/12/31 03:00:11;;;;;;;70.88;21.42;;;-2.00;99.90;;;;;;5063766;28;20393;-86
2021/12/31 03:02:40;;;;;;;79.45;23.35;;;-2.00;99.90;;;;;;5061784;28;20400;-86
2021/12/31 03:05:09;;;;;;;40.37;21.23;;;-1.90;99.90;;;;;;5061866;28;20388;-87
2021/12/31 03:07:38;;;;;;;76.30;21.52;;;-2.00;99.90;;;;;;5068218;28;20384;-87
2021/12/31 03:10:07;;;;;;;73.43;21.45;;;-2.00;99.90;;;;;;5064169;28;20456;-86
2021/12/31 03:12:36;;;;;;;75.50;21.48;;;-1.80;99.90;;;;;;5063028;28;20398;-88
2021/12/31 03:15:04;;;;;;;47.47;20.55;;;-1.80;99.90;;;;;;5038226;28;20485;-85
2021/12/31 03:17:33;;;;;;;65.72;22.15;;;-1.80;99.90;;;;;;5062923;28;20398;-86
2021/12/31 03:20:11;;;;;;;43.47;22.58;;;-1.80;99.90;;;;;;5062385;28;20420;-86
2021/12/31 03:22:40;;;;;;;66.90;19.83;;;-1.70;99.90;;;;;;5061974;28;20394;-86
2021/12/31 03:25:10;;;;;;;62.40;20.50;;;-1.80;99.90;;;;;;5060655;28;20573;-87
2021/12/31 03:27:38;;;;;;;94.40;21.73;;;-1.80;99.90;;;;;;5057878;28;20946;-85
2021/12/31 03:30:06;;;;;;;79.95;22.17;;;-1.70;99.90;;;;;;5043665;28;20903;-86
2021/12/31 03:32:34;;;;;;;53.00;20.42;;;-1.70;99.90;;;;;;5067014;28;20398;-86
2021/12/31 03:35:01;;;;;;;112.32;22.73;;;-1.60;99.90;;;;;;5060027;28;20411;-87
2021/12/31 03:37:29;;;;;;;102.38;21.15;;;-1.60;99.90;;;;;;5062374;28;20456;-86
2021/12/31 03:39:56;;;;;;;67.13;20.20;;;-1.60;99.90;;;;;;5064768;28;20879;-86
2021/12/31 03:42:24;;;;;;;48.47;20.65;;;-1.60;99.90;;;;;;5064895;28;20489;-87
2021/12/31 03:44:52;;;;;;;58.45;20.08;;;-1.60;99.90;;;;;;5040619;28;20431;-87
2021/12/31 03:47:20;;;;;;;74.68;21.48;;;-1.50;99.90;;;;;;5061464;28;20402;-87
2021/12/31 03:49:48;;;;;;;73.33;19.57;;;-1.50;99.90;;;;;;5043581;28;20403;-87
2021/12/31 03:52:16;;;;;;;80.30;22.35;;;-1.50;99.90;;;;;;5045536;28;20418;-87
2021/12/31 03:54:43;;;;;;;59.97;21.97;;;-1.40;99.90;;;;;;5060565;28;20441;-87
2021/12/31 03:57:11;;;;;;;49.17;19.52;;;-1.40;99.90;;;;;;5053175;28;20454;-86
2021/12/31 03:59:39;;;;;;;87.33;23.20;;;-1.40;99.90;;;;;;5045184;28;20482;-87
2021/12/31 04:02:06;;;;;;;52.40;19.90;;;-1.30;99.90;;;;;;5058425;28;20399;-86
2021/12/31 04:04:34;;;;;;;56.00;19.23;;;-1.30;99.90;;;;;;5041973;28;20821;-86
2021/12/31 04:07:02;;;;;;;51.65;19.75;;;-1.40;99.90;;;;;;5048065;28;20412;-86
2021/12/31 04:09:29;;;;;;;107.47;22.73;;;-1.40;99.90;;;;;;5059950;28;20405;-86
2021/12/31 04:11:57;;;;;;;57.80;20.15;;;-1.20;99.90;;;;;;5060089;28;20917;-87
2021/12/31 04:14:24;;;;;;;52.63;19.27;;;-1.20;99.90;;;;;;5038564;28;20915;-86
2021/12/31 04:16:53;;;;;;;89.57;22.55;;;-1.20;99.90;;;;;;5061470;28;20388;-85
2021/12/31 04:19:21;;;;;;;71.63;21.00;;;-1.20;99.90;;;;;;5067564;28;20404;-87
2021/12/31 04:21:50;;;;;;;69.60;18.50;;;-1.20;99.90;;;;;;5061755;28;20461;-87
2021/12/31 04:24:30;;;;;;;68.28;19.65;;;-1.10;99.90;;;;;;5061398;28;20402;-87
2021/12/31 04:26:58;;;;;;;55.35;19.67;;;-1.10;99.90;;;;;;5058422;28;20430;-87
2021/12/31 04:29:25;;;;;;;61.80;17.97;;;-1.10;99.90;;;;;;5043239;28;20803;-87
2021/12/31 04:31:53;;;;;;;80.32;19.88;;;-1.10;99.90;;;;;;5053038;28;20388;-87
2021/12/31 04:34:21;;;;;;;62.50;17.60;;;-1.00;99.90;;;;;;5061457;28;20384;-88
2021/12/31 04:36:49;;;;;;;99.85;18.27;;;-1.00;99.90;;;;;;5061952;28;20486;-86
2021/12/31 04:39:16;;;;;;;74.43;16.95;;;-0.90;99.90;;;;;;5061749;28;20398;-87
2021/12/31 04:41:45;;;;;;;73.18;20.42;;;-0.90;99.90;;;;;;5060468;28;20836;-86
2021/12/31 04:44:12;;;;;;;50.97;16.40;;;-0.90;99.90;;;;;;5035056;28;20427;-86
2021/12/31 04:46:40;;;;;;;55.78;16.05;;;-0.90;99.90;;;;;;5052715;28;20425;-88
2021/12/31 04:49:08;;;;;;;49.45;16.60;;;-0.90;99.90;;;;;;5063185;28;20405;-87
2021/12/31 04:51:38;;;;;;;58.20;15.95;;;-0.90;99.90;;;;;;5056039;28;20776;-87
2021/12/31 04:54:07;;;;;;;57.03;16.13;;;-0.90;99.90;;;;;;5059947;28;20403;-88
2021/12/31 04:56:35;;;;;;;137.80;21.03;;;-0.80;99.90;;;;;;5058404;28;20394;-88
2021/12/31 04:59:04;;;;;;;83.00;17.70;;;-0.70;99.90;;;;;;5044033;28;20394;-86
2021/12/31 05:01:32;;;;;;;76.47;16.83;;;-0.70;99.90;;;;;;5059609;28;20410;-88
2021/12/31 05:04:00;;;;;;;54.20;14.95;;;-0.70;99.90;;;;;;5059425;28;20872;-88
2021/12/31 05:06:28;;;;;;;78.47;15.65;;;-0.70;99.90;;;;;;5056578;28;20430;-86
2021/12/31 05:08:56;;;;;;;57.08;16.58;;;-0.80;99.90;;;;;;5057221;28;20482;-87
2021/12/31 05:11:24;;;;;;;58.75;14.85;;;-0.80;99.90;;;;;;5061389;28;20420;-89
2021/12/31 05:13:51;;;;;;;39.55;14.48;;;-0.70;99.90;;;;;;5050189;28;20402;-88
2021/12/31 05:16:19;;;;;;;65.55;14.27;;;-0.70;99.90;;;;;;5047654;28;20413;-88
2021/12/31 05:18:46;;;;;;;39.42;14.60;;;-0.70;99.90;;;;;;5059370;28;20398;-88
2021/12/31 05:21:14;;;;;;;121.25;17.35;;;-0.60;99.90;;;;;;5035400;28;20423;-87
2021/12/31 05:23:42;;;;;;;65.97;13.85;;;-0.60;99.90;;;;;;5061091;28;20412;-87
2021/12/31 05:26:10;;;;;;;80.73;17.27;;;-0.60;99.90;;;;;;5058683;28;20379;-86
2021/12/31 05:28:37;;;;;;;111.05;17.50;;;-0.60;99.90;;;;;;5066624;28;20394;-88
2021/12/31 05:31:05;;;;;;;62.67;14.18;;;-0.60;99.90;;;;;;5043063;28;20410;-88
2021/12/31 05:33:33;;;;;;;63.17;14.10;;;-0.50;99.90;;;;;;5066678;28;20502;-87
2021/12/31 05:36:01;;;;;;;87.05;18.58;;;-0.60;99.90;;;;;;5064400;28;20392;-87
2021/12/31 05:38:28;;;;;;;48.37;13.67;;;-0.60;99.90;;;;;;5070455;28;20398;-89
2021/12/31 05:40:56;;;;;;;65.78;13.80;;;-0.50;99.90;;;;;;5064907;28;20398;-88
2021/12/31 05:43:24;;;;;;;105.70;15.82;;;-0.50;99.90;;;;;;5055753;28;20400;-88
2021/12/31 05:45:52;;;;;;;85.97;17.02;;;-0.50;99.90;;;;;;5062563;28;20407;-88
2021/12/31 05:48:24;;;;;;;70.32;15.68;;;-0.50;99.90;;;;;;5072186;28;20395;-88
2021/12/31 05:50:52;;;;;;;66.60;13.73;;;-0.50;99.90;;;;;;5070416;28;20855;-88
2021/12/31 05:53:19;;;;;;;40.28;14.40;;;-0.40;99.90;;;;;;5063509;28;20394;-89
2021/12/31 05:55:47;;;;;;;60.13;14.23;;;-0.50;99.90;;;;;;5060269;28;20386;-88
2021/12/31 05:58:15;;;;;;;34.25;12.93;;;-0.40;99.90;;;;;;5050751;28;20489;-88
2021/12/31 06:00:43;;;;;;;61.40;14.73;;;-0.40;99.90;;;;;;5045384;28;20483;-87
2021/12/31 06:03:11;;;;;;;49.00;12.15;;;-0.40;99.90;;;;;;5063619;28;20400;-88
2021/12/31 06:05:39;;;;;;;59.03;14.27;;;-0.30;99.90;;;;;;5065643;28;20399;-87
2021/12/31 06:08:06;;;;;;;39.57;10.60;;;-0.30;99.90;;;;;;5064588;28;20512;-88
2021/12/31 06:10:39;;;;;;;35.17;10.57;;;-0.30;99.90;;;;;;5064386;28;20491;-90
2021/12/31 06:13:07;;;;;;;34.60;10.37;;;-0.30;99.90;;;;;;5062226;28;20476;-87
2021/12/31 06:15:35;;;;;;;44.75;10.40;;;-0.30;99.90;;;;;;5057558;28;20415;-89
2021/12/31 06:18:03;;;;;;;26.08;11.55;;;-0.30;99.90;;;;;;5046235;28;20407;-89
2021/12/31 06:20:31;;;;;;;23.75;10.10;;;-0.30;99.90;;;;;;5046493;28;20753;-88
2021/12/31 06:22:58;;;;;;;21.92;9.85;;;-0.30;99.90;;;;;;5061543;28;20453;-89
2021/12/31 06:25:27;;;;;;;20.35;8.70;;;-0.30;99.90;;;;;;5067804;28;20803;-90
2021/12/31 06:27:55;;;;;;;18.75;8.68;;;-0.30;99.90;;;;;;5062357;28;20414;-89
2021/12/31 06:30:23;;;;;;;19.52;8.70;;;-0.30;99.90;;;;;;5045795;28;20406;-87
2021/12/31 06:32:50;;;;;;;17.38;7.88;;;-0.30;99.90;;;;;;5056498;28;20399;-89
2021/12/31 06:35:18;;;;;;;17.83;8.05;;;-0.20;99.90;;;;;;5060594;28;20434;-89
2021/12/31 06:37:48;;;;;;;15.18;7.30;;;-0.20;99.90;;;;;;5059339;28;20457;-89
2021/12/31 06:40:20;;;;;;;18.20;8.05;;;-0.20;99.90;;;;;;5065196;28;20444;-89
2021/12/31 06:42:48;;;;;;;13.38;6.75;;;-0.20;99.90;;;;;;5046083;28;20426;-90
2021/12/31 06:45:16;;;;;;;10.75;5.55;;;-0.20;99.90;;;;;;5055417;28;20781;-89
2021/12/31 06:47:44;;;;;;;12.13;6.13;;;-0.20;99.90;;;;;;5045497;28;20392;-89
2021/12/31 06:50:11;;;;;;;9.90;5.45;;;-0.10;99.90;;;;;;5063315;28;20404;-89
2021/12/31 06:52:40;;;;;;;12.87;5.97;;;-0.20;99.90;;;;;;5047236;28;20907;-89
2021/12/31 06:55:08;;;;;;;13.07;6.25;;;-0.10;99.90;;;;;;5060472;28;20889;-89
2021/12/31 06:57:36;;;;;;;10.77;5.88;;;-0.10;99.90;;;;;;5053164;28;20437;-89
2021/12/31 07:00:06;;;;;;;10.80;5.57;;;-0.10;99.90;;;;;;5053886;28;20418;-90
2021/12/31 07:02:33;;;;;;;10.70;5.60;;;-0.10;99.90;;;;;;5066155;28;20390;-88
2021/12/31 07:05:01;;;;;;;16.10;6.05;;;-0.10;99.90;;;;;;5062588;28;20404;-88
2021/12/31 07:07:29;;;;;;;8.85;4.90;;;-0.10;99.90;;;;;;5069101;28;20917;-90
2021/12/31 07:09:57;;;;;;;10.50;4.90;;;-0.10;99.90;;;;;;5062960;28;20406;-88
2021/12/31 07:12:25;;;;;;;8.20;4.43;;;-0.10;99.90;;;;;;5056562;28;20400;-89
2021/12/31 07:14:52;;;;;;;10.50;4.68;;;-0.10;99.90;;;;;;5064706;28;20402;-89
2021/12/31 07:17:20;;;;;;;7.18;3.95;;;0.00;99.90;;;;;;5061968;28;20402;-89
2021/12/31 07:19:48;;;;;;;8.68;4.03;;;0.00;99.90;;;;;;5061798;28;20398;-89
2021/12/31 07:22:15;;;;;;;8.60;4.40;;;0.00;99.90;;;;;;5043553;28;20436;-89
2021/12/31 07:24:43;;;;;;;8.95;4.32;;;0.00;99.90;;;;;;5076407;28;20410;-90
2021/12/31 07:27:11;;;;;;;12.43;6.00;;;0.10;99.90;;;;;;5065093;28;20477;-88
2021/12/31 07:29:38;;;;;;;9.00;4.38;;;0.10;99.90;;;;;;5053705;28;20394;-87
2021/12/31 07:32:06;;;;;;;7.87;3.93;;;0.10;99.90;;;;;;5062001;28;20445;-88
2021/12/31 07:34:34;;;;;;;7.03;4.07;;;0.10;99.90;;;;;;5045324;28;20809;-90
2021/12/31 07:37:01;;;;;;;10.02;4.30;;;0.10;99.90;;;;;;5037061;28;20392;-90
2021/12/31 07:39:32;;;;;;;8.20;3.97;;;0.10;99.90;;;;;;5064106;28;20401;-89
2021/12/31 07:42:00;;;;;;;6.97;3.53;;;0.10;99.90;;;;;;5062548;28;20479;-89
2021/12/31 07:44:33;;;;;;;7.13;3.75;;;0.10;99.90;;;;;;5061890;28;20433;-88
2021/12/31 07:47:00;;;;;;;8.07;3.65;;;0.10;99.90;;;;;;5056270;28;20451;-90
2021/12/31 07:49:28;;;;;;;7.65;3.35;;;0.10;99.90;;;;;;5044058;28;20390;-88
2021/12/31 07:51:56;;;;;;;6.95;3.70;;;0.10;99.90;;;;;;5065695;28;20408;-89
2021/12/31 07:54:24;;;;;;;5.82;3.25;;;0.20;99.90;;;;;;5062836;28;20402;-89
2021/12/31 07:56:52;;;;;;;5.53;3.70;;;0.10;99.90;;;;;;5056924;28;20383;-88
2021/12/31 07:59:20;;;;;;;8.43;4.50;;;0.10;99.90;;;;;;5062221;28;20822;-89
2021/12/31 08:01:47;;;;;;;5.32;3.10;;;0.10;99.90;;;;;;5057871;28;20457;-90
2021/12/31 08:04:15;;;;;;;6.95;3.13;;;0.20;99.90;;;;;;5064427;28;20456;-89
2021/12/31 08:06:43;;;;;;;9.77;3.75;;;0.30;99.90;;;;;;5043001;28;20405;-90
2021/12/31 08:09:11;;;;;;;11.60;5.05;;;0.30;99.90;;;;;;5057717;28;20406;-90
2021/12/31 08:11:39;;;;;;;9.15;4.35;;;0.20;99.90;;;;;;5061846;28;20923;-90
2021/12/31 08:14:07;;;;;;;8.20;4.15;;;0.20;99.90;;;;;;5043241;28;20404;-89
2021/12/31 08:16:35;;;;;;;8.52;3.90;;;0.20;99.90;;;;;;5061912;28;20409;-90
2021/12/31 08:19:03;;;;;;;9.93;4.88;;;0.20;99.90;;;;;;5062164;28;20911;-89
2021/12/31 08:21:30;;;;;;;7.10;3.50;;;0.20;99.90;;;;;;5059882;28;20411;-90
2021/12/31 08:23:58;;;;;;;10.60;5.40;;;0.20;99.90;;;;;;5056007;28;20409;-87
2021/12/31 08:26:28;;;;;;;6.40;3.05;;;0.20;99.90;;;;;;5077968;28;20482;-88
2021/12/31 08:28:55;;;;;;;7.15;3.67;;;0.30;99.90;;;;;;5067628;28;20905;-90
2021/12/31 08:31:23;;;;;;;8.63;3.47;;;0.30;99.90;;;;;;5064713;28;20482;-90
2021/12/31 08:33:50;;;;;;;7.72;3.60;;;0.40;99.90;;;;;;5061330;28;20406;-89
2021/12/31 08:36:18;;;;;;;7.22;3.22;;;0.40;99.90;;;;;;5061391;28;20393;-87
2021/12/31 08:38:46;;;;;;;13.10;3.50;;;0.40;99.90;;;;;;5042422;28;20399;-86
2021/12/31 08:41:16;;;;;;;9.93;4.22;;;0.40;99.90;;;;;;5060026;28;20416;-88
2021/12/31 08:44:05;;;;;;;7.60;3.80;;;0.40;99.90;;;;;;5039620;28;21084;-88
2021/12/31 08:46:35;;;;;;;10.10;4.75;;;0.40;99.90;;;;;;5057435;28;20399;-90
2021/12/31 08:49:03;;;;;;;7.53;3.80;;;0.40;99.90;;;;;;5047490;28;20807;-88
2021/12/31 08:51:31;;;;;;;6.88;2.88;;;0.40;99.90;;;;;;5057443;28;20486;-90
2021/12/31 08:53:59;;;;;;;5.40;2.97;;;0.50;99.90;;;;;;5060677;28;20407;-88
2021/12/31 08:56:26;;;;;;;9.75;3.30;;;0.50;99.90;;;;;;5062788;28;20402;-88
2021/12/31 08:58:54;;;;;;;7.63;2.97;;;0.50;99.90;;;;;;5064690;28;20402;-90
2021/12/31 09:01:22;;;;;;;6.63;2.97;;;0.50;99.90;;;;;;5046575;28;20392;-89
2021/12/31 09:03:50;;;;;;;9.48;3.20;;;0.50;99.90;;;;;;5064020;28;20433;-89
2021/12/31 09:06:18;;;;;;;6.97;3.60;;;0.60;99.90;;;;;;5042596;28;20406;-87
2021/12/31 09:08:46;;;;;;;9.30;2.85;;;0.50;99.90;;;;;;5068962;28;20893;-88
2021/12/31 09:11:15;;;;;;;6.97;2.92;;;0.60;99.90;;;;;;5061666;28;20449;-88
2021/12/31 09:13:46;;;;;;;8.80;3.40;;;0.60;99.90;;;;;;5072365;28;20903;-90
2021/12/31 09:16:14;;;;;;;6.85;2.90;;;0.60;99.90;;;;;;5079775;28;20411;-88
2021/12/31 09:18:42;;;;;;;5.90;2.55;;;0.60;99.90;;;;;;5060116;28;20414;-87
2021/12/31 09:21:10;;;;;;;13.70;2.85;;;0.60;99.90;;;;;;5062421;28;20414;-89
2021/12/31 09:23:37;;;;;;;6.83;2.97;;;0.70;99.90;;;;;;5045011;28;20437;-88
2021/12/31 09:26:05;;;;;;;6.32;2.90;;;0.70;99.90;;;;;;5047081;28;20477;-89
2021/12/31 09:28:33;;;;;;;5.53;2.67;;;0.70;99.90;;;;;;5065358;28;20401;-89
2021/12/31 09:31:07;;;;;;;9.07;3.13;;;0.70;99.90;;;;;;5049316;28;20381;-88
2021/12/31 09:33:36;;;;;;;9.05;2.92;;;0.70;99.90;;;;;;5067583;28;20405;-88
2021/12/31 09:36:04;;;;;;;9.03;2.63;;;0.80;99.90;;;;;;5062360;28;20440;-89
2021/12/31 09:38:32;;;;;;;10.30;2.97;;;0.80;99.90;;;;;;5043108;28;20402;-88
2021/12/31 09:40:59;;;;;;;15.52;2.95;;;0.80;99.90;;;;;;5068007;28;20394;-89
2021/12/31 09:43:27;;;;;;;11.82;3.10;;;0.80;99.90;;;;;;5064523;28;20396;-88
2021/12/31 09:45:55;;;;;;;13.38;3.67;;;0.80;99.90;;;;;;5064450;28;20911;-88
2021/12/31 09:48:24;;;;;;;16.00;2.85;;;0.80;99.90;;;;;;5042807;28;20448;-89
2021/12/31 09:50:55;;;;;;;12.27;3.95;;;0.80;99.90;;;;;;5061006;28;20499;-89
2021/12/31 09:53:28;;;;;;;10.90;2.72;;;0.80;99.90;;;;;;5065454;28;20402;-88
2021/12/31 09:55:57;;;;;;;15.23;3.20;;;0.80;99.90;;;;;;5062549;28;20388;-91
2021/12/31 09:58:27;;;;;;;10.60;2.85;;;0.80;99.90;;;;;;5055203;28;20408;-90
2021/12/31 10:00:59;;;;;;;12.63;2.78;;;0.90;99.90;;;;;;5064973;28;20777;-90
2021/12/31 10:03:32;;;;;;;23.40;3.60;;;0.90;99.90;;;;;;5067109;28;20483;-90
2021/12/31 10:06:14;;;;;;;11.60;3.35;;;0.90;99.90;;;;;;5069887;28;20398;-90
2021/12/31 10:08:44;;;;;;;23.57;9.57;;;0.90;99.90;;;;;;5055956;28;20402;-91
2021/12/31 10:11:23;;;;;;;18.05;3.08;;;0.90;99.90;;;;;;5067614;28;20450;-90
2021/12/31 10:13:59;;;;;;;8.02;3.40;;;0.90;99.90;;;;;;5038926;28;20903;-91
2021/12/31 10:16:30;;;;;;;8.38;2.70;;;0.90;99.90;;;;;;5059283;28;20403;-92
2021/12/31 10:19:10;;;;;;;8.77;3.10;;;0.90;99.90;;;;;;5062303;28;20399;-91
2021/12/31 10:21:41;;;;;;;10.50;2.65;;;0.90;99.90;;;;;;5046366;28;20415;-91
2021/12/31 10:24:33;;;;;;;13.82;3.90;;;1.00;99.90;;;;;;5058121;28;20743;-91
2021/12/31 10:27:03;;;;;;;7.35;2.90;;;1.00;99.90;;;;;;5062133;28;20487;-90
2021/12/31 10:29:31;;;;;;;14.30;2.97;;;1.00;99.90;;;;;;5050850;28;20400;-90
2021/12/31 10:31:59;;;;;;;7.05;2.50;;;1.10;99.90;;;;;;5069006;28;20388;-90
2021/12/31 10:34:30;;;;;;;7.72;2.47;;;1.10;99.90;;;;;;5061164;28;20462;-90
2021/12/31 10:37:03;;;;;;;10.57;2.78;;;1.10;99.90;;;;;;5067167;28;20400;-91
2021/12/31 10:39:32;;;;;;;6.75;2.22;;;1.10;99.90;;;;;;5060997;28;20753;-89
2021/12/31 10:42:00;;;;;;;5.60;2.40;;;1.10;99.90;;;;;;5062155;28;20486;-89
2021/12/31 10:44:48;;;;;;;5.00;2.20;;;1.10;99.90;;;;;;5067941;28;20997;-88
2021/12/31 10:47:32;;;;;;;5.30;2.42;;;1.10;99.90;;;;;;5065886;28;20433;-89
2021/12/31 10:50:03;;;;;;;3.40;1.90;;;1.10;99.90;;;;;;5061216;28;20394;-89
2021/12/31 10:52:45;;;;;;;4.63;2.03;;;1.10;99.90;;;;;;5062932;28;20413;-89
2021/12/31 10:55:24;;;;;;;8.57;2.15;;;1.20;99.90;;;;;;5060520;28;20415;-88
2021/12/31 10:57:57;;;;;;;7.10;2.28;;;1.20;99.90;;;;;;5067654;28;20498;-90
2021/12/31 11:00:28;;;;;;;5.28;2.28;;;1.10;99.90;;;;;;5061957;28;20492;-89
2021/12/31 11:02:57;;;;;;;7.03;2.30;;;1.10;99.90;;;;;;5063302;28;20424;-89
2021/12/31 11:05:25;;;;;;;8.32;2.13;;;1.10;99.90;;;;;;5063350;28;20406;-89
2021/12/31 11:07:54;;;;;;;9.30;2.35;;;1.20;99.90;;;;;;5062461;28;20414;-90
2021/12/31 11:10:36;;;;;;;6.15;2.10;;;1.20;99.90;;;;;;5050383;28;20907;-89
2021/12/31 11:13:20;;;;;;;8.52;3.08;;;1.20;99.90;;;;;;5047795;28;20415;-89
2021/12/31 11:15:52;;;;;;;5.10;2.20;;;1.20;99.90;;;;;;5057982;28;20496;-89
2021/12/31 11:18:23;;;;;;;12.40;2.53;;;1.20;99.90;;;;;;5047142;28;20414;-89
2021/12/31 11:21:01;;;;;;;5.32;2.33;;;1.20;99.90;;;;;;5067177;28;20868;-90
2021/12/31 11:23:31;;;;;;;6.38;2.20;;;1.20;99.90;;;;;;5046418;28;20414;-90
2021/12/31 11:26:02;;;;;;;9.82;2.50;;;1.20;99.90;;;;;;5062851;28;20409;-88
2021/12/31 11:28:31;;;;;;;13.82;2.10;;;1.20;99.90;;;;;;5062786;28;20430;-89
2021/12/31 11:31:39;;;;;;;21.15;2.47;;;1.20;99.90;;;;;;5057781;28;20438;-89
2021/12/31 11:34:12;;;;;;;5.85;1.85;;;1.30;99.90;;;;;;5026057;28;20494;-90
2021/12/31 11:36:57;;;;;;;6.57;2.17;;;1.30;99.90;;;;;;5067630;28;20496;-91
2021/12/31 11:39:35;;;;;;;5.85;2.08;;;1.20;99.90;;;;;;5048979;28;20403;-90
2021/12/31 11:42:06;;;;;;;7.10;2.00;;;1.20;99.90;;;;;;5056770;28;20400;-90
2021/12/31 11:44:36;;;;;;;4.68;1.80;;;1.20;99.90;;;;;;5049719;28;20398;-90
2021/12/31 11:47:27;;;;;;;4.70;1.77;;;1.20;99.90;;;;;;5064790;28;20794;-90
2021/12/31 11:50:31;;;;;;;13.50;2.35;;;1.20;99.90;;;;;;5060188;28;20396;-90
2021/12/31 11:53:03;;;;;;;5.53;2.13;;;1.20;99.90;;;;;;5043128;28;20415;-90
2021/12/31 11:55:44;;;;;;;11.80;2.00;;;1.20;99.90;;;;;;5058758;28;20474;-91
2021/12/31 11:58:38;;;;;;;8.35;2.33;;;1.30;99.90;;;;;;5062418;28;20410;-90
2021/12/31 12:01:37;;;;;;;6.60;2.17;;;1.20;99.90;;;;;;5063422;28;20876;-90
2021/12/31 12:04:26;;;;;;;10.20;2.10;;;1.20;99.90;;;;;;5062446;28;20487;-90
2021/12/31 12:06:59;;;;;;;10.23;2.45;;;1.30;99.90;;;;;;5042247;28;20409;-91
2021/12/31 12:09:36;;;;;;;9.20;2.00;;;1.20;99.90;;;;;;5061742;28;20404;-90
2021/12/31 12:12:26;;;;;;;14.97;1.77;;;1.20;99.90;;;;;;5052148;28;20400;-89
2021/12/31 12:14:55;;;;;;;13.90;1.60;;;1.30;99.90;;;;;;5057452;28;20904;-88
2021/12/31 12:17:30;;;;;;;11.60;1.60;;;1.30;99.90;;;;;;5056707;28;20942;-90
2021/12/31 12:19:57;;;;;;;10.32;1.95;;;1.30;99.90;;;;;;5052039;28;20443;-89
2021/12/31 12:22:33;;;;;;;16.23;1.90;;;1.30;99.90;;;;;;5064104;28;20400;-90
2021/12/31 12:25:06;;;;;;;11.13;1.65;;;1.30;99.90;;;;;;5049615;28;20391;-91
2021/12/31 12:27:34;;;;;;;7.60;1.83;;;1.30;99.90;;;;;;5061411;28;20393;-91
2021/12/31 12:30:07;;;;;;;5.17;1.90;;;1.30;99.90;;;;;;5059496;28;20384;-90
2021/12/31 12:32:53;;;;;;;5.22;1.33;;;1.30;99.90;;;;;;5069142;28;20478;-90
2021/12/31 12:35:26;;;;;;;5.50;1.48;;;1.30;99.90;;;;;;5061089;28;20486;-91
2021/12/31 12:38:05;;;;;;;19.95;2.28;;;1.30;99.90;;;;;;5056645;28;20404;-89
2021/12/31 12:40:44;;;;;;;4.47;1.45;;;1.40;99.90;;;;;;5055788;28;20398;-90
2021/12/31 12:43:19;;;;;;;10.68;1.77;;;1.40;99.90;;;;;;5068060;28;20402;-90
2021/12/31 12:45:50;;;;;;;3.83;1.80;;;1.40;99.90;;;;;;5056463;28;20809;-89
2021/12/31 12:48:35;;;;;;;5.18;2.00;;;1.40;99.90;;;;;;5067851;28;20476;-91
2021/12/31 12:51:11;;;;;;;13.95;5.00;;;1.40;99.90;;;;;;5086293;28;20496;-91
2021/12/31 12:53:45;;;;;;;5.90;2.03;;;1.40;99.90;;;;;;5062215;28;20405;-90
2021/12/31 12:56:18;;;;;;;6.53;1.48;;;1.30;99.90;;;;;;5043186;28;20393;-90
2021/12/31 12:58:57;;;;;;;14.02;1.92;;;1.40;99.90;;;;;;5051097;28;20407;-91
2021/12/31 13:01:38;;;;;;;7.10;1.60;;;1.40;99.90;;;;;;5067369;28;20934;-90